This is the latest recevied weather packets stored in our database for station/object W2GRK-15. If no packets are shown the sender has not sent any weather packets the latest 10 day(s).
| Time | Temp. | Humidity | Pressure | Rain* | Wind** | Luminosity | Snow |
|---|---|---|---|---|---|---|---|
| 1777379427 | 13.89° C | 60% | 1022.7 hPa | 0 mm | - | 238 W/m² | - |
| 1777379185 | 13.89° C | 59% | 1022.4 hPa | 0 mm | - | 192 W/m² | - |
| 1777379008 | 13.89° C | 59% | 1022.7 hPa | 0 mm | - | 140 W/m² | - |
| 1777378018 | 12.78° C | 64% | 1022.9 hPa | 0 mm | - | 208 W/m² | - |
| 1777377446 | 11.11° C | 70% | 1023 hPa | 0 mm | - | 120 W/m² | - |
| 1777377205 | 11.11° C | 71% | 1023 hPa | 0 mm | - | 110 W/m² | - |
| 1777377076 | 11.11° C | 71% | 1022.8 hPa | 0 mm | - | 103 W/m² | - |
| 1777376963 | 11.11° C | 73% | 1022.9 hPa | 0 mm | - | 97 W/m² | - |
| 1777376899 | 11.11° C | 74% | 1022.7 hPa | 0 mm | - | 95 W/m² | - |
| 1777376609 | 11.11° C | 73% | 1022.8 hPa | 0 mm | - | 83 W/m² | - |
| 1777375465 | 8.89° C | 83% | 1022.9 hPa | 0 mm | - | 64 W/m² | - |
| 1777375223 | 7.22° C | 88% | 1022.8 hPa | 0 mm | - | 61 W/m² | - |
| 1777375159 | 7.22° C | 88% | 1022.9 hPa | 0 mm | - | 60 W/m² | - |
| 1777375111 | 6.67° C | 89% | 1022.8 hPa | 0 mm | - | 59 W/m² | - |
| 1777374080 | 5° C | 93% | 1022.8 hPa | 0 mm | - | 37 W/m² | - |
| 1777373943 | 5° C | 93% | 1022.7 hPa | 0 mm | - | 24 W/m² | - |
| 1777373838 | 5° C | 93% | 1022.6 hPa | 0 mm | - | 23 W/m² | - |
| 1777373484 | 4.44° C | 94% | 1022.4 hPa | 0 mm | - | 20 W/m² | - |
| 1777373242 | 4.44° C | 94% | 1022.6 hPa | 0 mm | - | 18 W/m² | - |
| 1777373130 | 4.44° C | 94% | 1022.5 hPa | 0 mm | - | 17 W/m² | - |
| 1777372936 | 4.44° C | 94% | 1022.3 hPa | 0 mm | - | 16 W/m² | - |
| 1777372308 | 3.89° C | 94% | 1022.1 hPa | 0 mm | - | 12 W/m² | - |
| 1777372183 | 3.89° C | 94% | 1022.5 hPa | 0 mm | - | 11 W/m² | - |
| 1777371198 | 3.89° C | 93% | 1022.5 hPa | 0 mm | - | 6 W/m² | - |
| 1777371020 | 3.89° C | 93% | 1022.2 hPa | 0 mm | - | 5 W/m² | - |
* Rain latest hour (hover to see other rain measurements)
** Current wind speed in m/s (hover to see current wind gust speed)